createdAt,value
2022-12-06T00:01:44.695Z,99857.53
2022-12-06T00:04:15.195Z,99853.47
2022-12-06T00:06:48.594Z,99856.50
2022-12-06T00:09:25.119Z,99860.34
2022-12-06T00:11:53.019Z,99846.00
2022-12-06T00:14:20.724Z,99856.03
2022-12-06T00:16:48.840Z,99861.28
2022-12-06T00:19:18.516Z,99859.28
2022-12-06T00:21:47.546Z,99860.00
2022-12-06T00:24:20.714Z,99845.75
2022-12-06T00:26:49.620Z,99858.16
2022-12-06T00:29:20.121Z,99861.00
2022-12-06T00:31:47.933Z,99853.16
2022-12-06T00:34:15.598Z,99860.22
2022-12-06T00:36:44.104Z,99866.25
2022-12-06T00:39:14.386Z,99859.63
2022-12-06T00:41:42.327Z,99857.34
2022-12-06T00:44:10.211Z,99864.06
2022-12-06T00:46:40.056Z,99866.38
2022-12-06T00:49:08.973Z,99864.53
2022-12-06T00:51:37.892Z,99855.34
2022-12-06T00:54:07.202Z,99866.69
2022-12-06T00:56:37.924Z,99862.97
2022-12-06T00:59:06.185Z,99838.47
2022-12-06T01:01:36.586Z,99877.25
2022-12-06T01:04:06.472Z,99878.78
2022-12-06T01:06:36.675Z,99862.94
2022-12-06T01:09:11.747Z,99867.06
2022-12-06T01:11:39.439Z,99867.47
2022-12-06T01:14:07.174Z,99858.56
2022-12-06T01:16:35.404Z,99863.53
2022-12-06T01:19:05.817Z,99856.25
2022-12-06T01:21:34.046Z,99860.78
2022-12-06T01:24:01.551Z,99868.63
2022-12-06T01:26:35.220Z,99872.75
2022-12-06T01:29:04.438Z,99867.88
2022-12-06T01:31:37.754Z,99869.34
2022-12-06T01:34:08.345Z,99860.75
2022-12-06T01:36:35.915Z,99863.31
2022-12-06T01:39:07.159Z,99865.81
2022-12-06T01:41:34.889Z,99861.06
2022-12-06T01:44:02.674Z,99863.59
2022-12-06T01:46:44.503Z,99856.22
2022-12-06T01:49:12.395Z,99859.63
2022-12-06T01:52:01.895Z,99853.13
2022-12-06T01:54:30.234Z,99851.34
2022-12-06T01:56:58.482Z,99856.34
2022-12-06T01:59:27.266Z,99851.69
2022-12-06T02:01:55.425Z,99842.31
2022-12-06T02:04:23.753Z,99839.16
2022-12-06T02:06:53.058Z,99841.84
2022-12-06T02:09:21.226Z,99853.63
2022-12-06T02:11:48.877Z,99854.63
2022-12-06T02:14:23.857Z,99851.28
2022-12-06T02:17:10.289Z,99850.22
2022-12-06T02:19:43.636Z,99853.81
2022-12-06T02:22:31.206Z,99843.09
2022-12-06T02:25:13.721Z,99848.41
2022-12-06T02:27:47.124Z,99851.31
2022-12-06T02:30:21.380Z,99841.31
2022-12-06T02:32:57.829Z,99841.41
2022-12-06T02:35:46.886Z,99844.22
2022-12-06T02:38:36.706Z,99834.22
2022-12-06T02:41:20.834Z,99836.03
2022-12-06T02:43:55.849Z,99848.16
2022-12-06T02:46:25.589Z,99842.31
2022-12-06T02:48:54.640Z,99833.75
2022-12-06T02:51:23.123Z,99832.94
2022-12-06T02:53:53.381Z,99836.56
2022-12-06T02:56:21.512Z,99833.22
2022-12-06T02:58:49.047Z,99831.06
2022-12-06T03:01:21.269Z,99824.63
2022-12-06T03:04:00.252Z,99828.31
2022-12-06T03:06:49.515Z,99832.50
2022-12-06T03:09:26.087Z,99829.06
2022-12-06T03:12:05.033Z,99832.94
2022-12-06T03:14:51.196Z,99832.66
2022-12-06T03:17:24.520Z,99832.09
2022-12-06T03:20:07.652Z,99836.53
2022-12-06T03:22:40.219Z,99841.94
2022-12-06T03:25:09.856Z,99842.34
2022-12-06T03:27:38.782Z,99847.56
2022-12-06T03:30:11.715Z,99840.19
2022-12-06T03:32:43.888Z,99841.88
2022-12-06T03:35:16.095Z,99843.19
2022-12-06T03:37:48.201Z,99846.94
2022-12-06T03:40:29.251Z,99854.72
2022-12-06T03:42:57.490Z,99852.28
2022-12-06T03:45:41.648Z,99849.69
2022-12-06T03:48:47.297Z,99866.09
2022-12-06T03:51:21.126Z,99851.94
2022-12-06T03:53:54.091Z,99849.03
2022-12-06T03:56:23.861Z,99847.69
2022-12-06T03:58:51.448Z,99846.84
2022-12-06T04:01:19.151Z,99850.69
2022-12-06T04:03:47.201Z,99852.47
2022-12-06T04:06:15.081Z,99844.25
2022-12-06T04:08:42.630Z,99851.09
2022-12-06T04:11:10.165Z,99858.06
2022-12-06T04:13:37.702Z,99851.66
2022-12-06T04:16:25.600Z,99854.09
2022-12-06T04:18:53.248Z,99857.72
2022-12-06T04:21:32.931Z,99868.34
2022-12-06T04:24:00.873Z,99866.47
2022-12-06T04:26:28.382Z,99874.97
2022-12-06T04:29:14.175Z,99874.78
2022-12-06T04:32:01.091Z,99871.69
2022-12-06T04:34:46.992Z,99877.75
2022-12-06T04:37:32.725Z,99861.75
2022-12-06T04:40:00.678Z,99870.06
2022-12-06T04:42:46.657Z,99873.94
2022-12-06T04:45:14.121Z,99862.06
2022-12-06T04:47:41.635Z,99862.88
2022-12-06T04:50:09.349Z,99868.25
2022-12-06T04:52:36.840Z,99864.56
2022-12-06T04:55:07.313Z,99860.78
2022-12-06T04:57:34.858Z,99868.66
2022-12-06T05:00:02.534Z,99871.28
2022-12-06T05:02:31.791Z,99868.38
2022-12-06T05:04:59.243Z,99875.97
2022-12-06T05:07:26.818Z,99872.16
2022-12-06T05:09:54.275Z,99873.06
2022-12-06T05:12:21.707Z,99824.47
2022-12-06T05:14:49.291Z,99851.53
2022-12-06T05:17:16.899Z,99860.06
2022-12-06T05:19:44.534Z,99867.69
2022-12-06T05:22:11.916Z,99877.53
2022-12-06T05:24:39.398Z,99872.84
2022-12-06T05:27:06.958Z,99870.25
2022-12-06T05:29:34.420Z,99872.78
2022-12-06T05:32:02.034Z,99877.13
2022-12-06T05:34:29.633Z,99869.50
2022-12-06T05:36:57.390Z,99869.84
2022-12-06T05:39:25.084Z,99880.22
2022-12-06T05:41:52.629Z,99886.59
2022-12-06T05:44:20.208Z,99881.59
2022-12-06T05:46:47.692Z,99880.03
2022-12-06T05:49:15.261Z,99886.53
2022-12-06T05:51:42.766Z,99871.25
2022-12-06T05:54:10.294Z,99875.97
2022-12-06T05:56:37.877Z,99875.22
2022-12-06T05:59:05.457Z,99884.09
2022-12-06T06:01:33.071Z,99880.06
2022-12-06T06:04:02.070Z,99868.56
2022-12-06T06:06:30.018Z,99874.41
2022-12-06T06:08:57.649Z,99877.31
2022-12-06T06:11:25.209Z,99877.78
2022-12-06T06:13:54.810Z,99879.78
2022-12-06T06:16:22.776Z,99886.31
2022-12-06T06:18:50.419Z,99893.41
2022-12-06T06:21:17.947Z,99885.97
2022-12-06T06:23:45.578Z,99885.84
2022-12-06T06:26:13.209Z,99876.06
2022-12-06T06:28:40.869Z,99892.72
2022-12-06T06:31:08.633Z,99883.09
2022-12-06T06:33:36.630Z,99893.66
2022-12-06T06:36:04.573Z,99889.34
2022-12-06T06:38:32.176Z,99880.25
2022-12-06T06:41:03.821Z,99895.13
2022-12-06T06:43:31.745Z,99890.91
2022-12-06T06:46:02.557Z,99890.97
2022-12-06T06:48:32.569Z,99852.31
2022-12-06T06:51:05.289Z,99887.34
2022-12-06T06:53:33.052Z,99889.16
2022-12-06T06:56:00.815Z,99879.47
2022-12-06T06:58:28.892Z,99860.72
2022-12-06T07:00:59.351Z,99874.34
2022-12-06T07:03:28.219Z,99863.19
2022-12-06T07:05:59.276Z,99854.69
2022-12-06T07:08:28.184Z,99871.66
2022-12-06T07:10:57.008Z,99861.19
2022-12-06T07:13:26.738Z,99850.09
2022-12-06T07:15:54.491Z,99846.41
2022-12-06T07:18:23.003Z,99865.63
2022-12-06T07:21:04.349Z,99860.28
2022-12-06T07:23:34.257Z,99870.41
2022-12-06T07:26:06.657Z,99868.94
2022-12-06T07:28:38.915Z,99850.44
2022-12-06T07:31:10.910Z,99859.25
2022-12-06T07:33:39.170Z,99850.41
2022-12-06T07:36:12.376Z,99854.28
2022-12-06T07:38:40.672Z,99854.69
2022-12-06T07:41:30.543Z,99843.16
2022-12-06T07:44:17.288Z,99861.53
2022-12-06T07:46:45.831Z,99867.50
2022-12-06T07:49:16.068Z,99852.06
2022-12-06T07:51:47.389Z,99852.69
2022-12-06T07:54:15.917Z,99833.13
2022-12-06T07:56:44.284Z,99844.16
2022-12-06T07:59:12.209Z,99827.78
2022-12-06T08:01:40.395Z,99825.31
2022-12-06T08:04:08.741Z,99845.59
2022-12-06T08:06:36.752Z,99855.38
2022-12-06T08:09:04.564Z,99854.78
2022-12-06T08:11:32.197Z,99857.75
2022-12-06T08:13:59.933Z,99852.38
2022-12-06T08:16:27.627Z,99853.66
2022-12-06T08:18:57.073Z,99849.69
2022-12-06T08:21:26.606Z,99853.66
2022-12-06T08:23:55.451Z,99861.13
2022-12-06T08:26:23.350Z,99840.41
2022-12-06T08:28:51.217Z,99870.06
2022-12-06T08:31:21.352Z,99855.25
2022-12-06T08:33:49.161Z,99850.00
2022-12-06T08:36:19.886Z,99847.09
2022-12-06T08:38:48.391Z,99871.91
2022-12-06T08:41:34.663Z,99852.53
2022-12-06T08:44:03.520Z,99860.19
2022-12-06T08:46:32.543Z,99866.34
2022-12-06T08:49:00.494Z,99871.31
2022-12-06T08:51:29.042Z,99860.41
2022-12-06T08:53:57.788Z,99858.44
2022-12-06T08:56:26.434Z,99847.50
2022-12-06T08:58:55.051Z,99858.06
2022-12-06T09:01:26.064Z,99863.16
2022-12-06T09:03:54.199Z,99849.06
2022-12-06T09:06:22.684Z,99864.72
2022-12-06T09:08:50.496Z,99859.28
2022-12-06T09:11:19.471Z,99859.22
2022-12-06T09:13:47.181Z,99851.94
2022-12-06T09:16:21.042Z,99858.56
2022-12-06T09:18:48.941Z,99858.66
2022-12-06T09:21:19.894Z,99847.13
2022-12-06T09:23:47.934Z,99857.22
2022-12-06T09:26:15.565Z,99852.13
2022-12-06T09:28:44.765Z,99859.16
2022-12-06T09:31:12.394Z,99857.03
2022-12-06T09:33:39.913Z,99854.97
2022-12-06T09:36:17.209Z,99849.53
2022-12-06T09:38:47.992Z,99833.97
2022-12-06T09:41:40.173Z,99858.97
2022-12-06T09:44:21.180Z,99852.41
2022-12-06T09:47:04.834Z,99848.91
2022-12-06T09:50:06.710Z,99859.16
2022-12-06T09:53:03.440Z,99851.63
2022-12-06T09:55:52.967Z,99859.94
2022-12-06T09:58:38.902Z,99853.09
2022-12-06T10:01:37.818Z,99861.69
2022-12-06T10:04:33.251Z,99852.88
2022-12-06T10:07:25.681Z,99861.28
2022-12-06T10:09:53.310Z,99854.47
2022-12-06T10:12:52.038Z,99855.78
2022-12-06T10:15:27.980Z,99838.84
2022-12-06T10:18:10.683Z,99840.69
2022-12-06T10:21:11.910Z,99841.31
2022-12-06T10:24:11.203Z,99837.88
2022-12-06T10:26:52.275Z,99838.44
2022-12-06T10:29:34.129Z,99840.28
2022-12-06T10:32:17.071Z,99838.81
2022-12-06T10:35:15.551Z,99839.56
2022-12-06T10:38:06.748Z,99833.69
2022-12-06T10:41:12.449Z,99832.94
2022-12-06T10:43:49.163Z,99824.50
2022-12-06T10:47:05.205Z,99837.88
2022-12-06T10:50:08.441Z,99840.56
2022-12-06T10:52:41.552Z,99828.53
2022-12-06T10:55:12.380Z,99832.97
2022-12-06T10:58:00.362Z,99834.59
2022-12-06T11:00:31.717Z,99839.34
2022-12-06T11:03:11.739Z,99829.97
2022-12-06T11:05:49.038Z,99827.34
2022-12-06T11:08:26.573Z,99826.16
2022-12-06T11:10:56.511Z,99815.44
2022-12-06T11:13:37.982Z,99835.81
2022-12-06T11:16:21.841Z,99827.16
2022-12-06T11:18:49.979Z,99819.53
2022-12-06T11:21:36.081Z,99823.41
2022-12-06T11:24:13.606Z,99828.31
2022-12-06T11:26:47.078Z,99829.31
2022-12-06T11:29:16.733Z,99828.72
2022-12-06T11:31:49.972Z,99833.97
2022-12-06T11:34:31.444Z,99836.44
2022-12-06T11:37:01.999Z,99839.94
2022-12-06T11:39:31.192Z,99845.00
2022-12-06T11:42:01.860Z,99836.94
2022-12-06T11:44:40.220Z,99855.34
2022-12-06T11:47:16.183Z,99843.63
2022-12-06T11:49:46.455Z,99853.34
2022-12-06T11:52:30.154Z,99857.56
2022-12-06T11:55:02.867Z,99865.50
2022-12-06T11:57:39.118Z,99871.34
2022-12-06T12:00:08.099Z,99857.41
2022-12-06T12:02:41.154Z,99864.75
2022-12-06T12:05:18.232Z,99859.03
2022-12-06T12:07:59.656Z,99864.75
2022-12-06T12:10:38.847Z,99867.16
2022-12-06T12:13:30.838Z,99863.31
2022-12-06T12:16:02.200Z,99856.22
2022-12-06T12:18:35.077Z,99862.31
2022-12-06T12:21:05.354Z,99864.56
2022-12-06T12:23:44.409Z,99869.59
2022-12-06T12:26:11.935Z,99860.91
2022-12-06T12:28:40.633Z,99861.78
2022-12-06T12:31:25.719Z,99854.84
2022-12-06T12:34:19.308Z,99857.25
2022-12-06T12:36:50.108Z,99860.00
2022-12-06T12:39:32.708Z,99854.94
2022-12-06T12:42:01.055Z,99856.38
2022-12-06T12:44:39.743Z,99862.44
2022-12-06T12:47:20.165Z,99859.22
2022-12-06T12:50:18.584Z,99867.72
2022-12-06T12:52:47.213Z,99870.41
2022-12-06T12:55:20.560Z,99862.50
2022-12-06T12:57:53.415Z,99869.22
2022-12-06T13:00:24.371Z,99877.66
2022-12-06T13:02:57.550Z,99874.41
2022-12-06T13:05:34.619Z,99879.09
2022-12-06T13:08:17.987Z,99861.91
2022-12-06T13:10:50.812Z,99879.13
2022-12-06T13:13:56.961Z,99864.75
2022-12-06T13:16:31.199Z,99876.34
2022-12-06T13:18:59.848Z,99876.72
2022-12-06T13:21:41.585Z,99889.09
2022-12-06T13:24:12.184Z,99882.19
2022-12-06T13:26:47.589Z,99878.56
2022-12-06T13:30:00.770Z,99875.34
2022-12-06T13:32:44.583Z,99872.06
2022-12-06T13:35:35.584Z,99879.16
2022-12-06T13:38:24.278Z,99876.72
2022-12-06T13:40:55.042Z,99880.63
2022-12-06T13:43:25.546Z,99879.41
2022-12-06T13:46:28.248Z,99877.78
2022-12-06T13:49:04.972Z,99881.25
2022-12-06T13:51:35.299Z,99885.28
2022-12-06T13:54:05.885Z,99884.06
2022-12-06T13:56:33.388Z,99885.50
2022-12-06T13:59:21.193Z,99873.75
2022-12-06T14:01:53.029Z,99870.56
2022-12-06T14:09:44.306Z,99891.59
2022-12-06T14:12:24.151Z,99862.25
2022-12-06T14:14:59.985Z,99889.34
2022-12-06T14:20:32.216Z,99895.47
2022-12-06T14:23:00.124Z,99885.56
2022-12-06T14:25:31.723Z,99886.94
2022-12-06T14:28:06.092Z,99875.41
2022-12-06T14:30:33.976Z,99874.41
2022-12-06T14:33:01.622Z,99872.19
2022-12-06T14:35:37.018Z,99882.53
2022-12-06T14:38:26.879Z,99877.88
2022-12-06T14:41:13.182Z,99886.19
2022-12-06T14:43:42.803Z,99875.41
2022-12-06T14:46:16.756Z,99876.84
2022-12-06T14:49:04.023Z,99877.25
2022-12-06T14:51:38.328Z,99876.66
2022-12-06T14:54:44.739Z,99878.69
2022-12-06T14:57:28.876Z,99878.53
2022-12-06T15:00:27.104Z,99871.84
2022-12-06T15:03:24.127Z,99874.84
2022-12-06T15:06:09.955Z,99871.03
2022-12-06T15:08:42.314Z,99869.44
2022-12-06T15:11:12.984Z,99868.22
2022-12-06T15:13:40.743Z,99869.44
2022-12-06T15:16:08.862Z,99876.31
2022-12-06T15:18:56.366Z,99871.91
2022-12-06T15:21:24.155Z,99876.94
2022-12-06T15:23:56.902Z,99871.91
2022-12-06T15:26:26.361Z,99867.63
2022-12-06T15:28:54.214Z,99869.84
2022-12-06T15:31:30.295Z,99867.81
2022-12-06T15:33:57.796Z,99860.16
2022-12-06T15:36:29.879Z,99865.19
2022-12-06T15:38:58.250Z,99870.28
2022-12-06T15:41:28.235Z,99864.38
2022-12-06T15:43:57.841Z,99852.66
2022-12-06T15:46:28.575Z,99867.22
2022-12-06T15:48:57.192Z,99856.91
2022-12-06T15:51:29.293Z,99856.91
2022-12-06T15:53:59.638Z,99853.47
2022-12-06T15:56:30.843Z,99851.44
2022-12-06T15:58:58.667Z,99853.06
2022-12-06T16:01:43.355Z,99854.50
2022-12-06T16:04:21.194Z,99848.00
2022-12-06T16:06:49.826Z,99842.13
2022-12-06T16:09:19.090Z,99845.59
2022-12-06T16:11:47.188Z,99852.69
2022-12-06T16:14:15.117Z,99845.41
2022-12-06T16:16:43.648Z,99839.75
2022-12-06T16:19:11.414Z,99835.13
2022-12-06T16:21:55.460Z,99843.19
2022-12-06T16:24:23.276Z,99837.75
2022-12-06T16:26:50.986Z,99836.31
2022-12-06T16:29:21.221Z,99842.38
2022-12-06T16:31:51.653Z,99834.69
2022-12-06T16:34:20.123Z,99839.75
2022-12-06T16:36:57.412Z,99829.44
2022-12-06T16:39:25.307Z,99834.31
2022-12-06T16:41:52.905Z,99842.19
2022-12-06T16:44:20.605Z,99841.59
2022-12-06T16:46:48.263Z,99838.38
2022-12-06T16:49:45.147Z,99852.91
2022-12-06T16:52:07.375Z,99852.31
2022-12-06T16:54:34.869Z,99853.50
2022-12-06T16:57:02.350Z,99850.88
2022-12-06T16:59:30.009Z,99852.72
2022-12-06T17:01:59.760Z,99846.84
2022-12-06T17:04:27.362Z,99851.06
2022-12-06T17:06:54.810Z,99859.78
2022-12-06T17:09:22.250Z,99852.69
2022-12-06T17:12:06.731Z,99842.38
2022-12-06T17:14:36.304Z,99863.41
2022-12-06T17:17:04.476Z,99855.31
2022-12-06T17:19:33.632Z,99847.25
2022-12-06T17:22:02.668Z,99860.19
2022-12-06T17:24:30.174Z,99861.38
2022-12-06T17:26:59.177Z,99859.19
2022-12-06T17:29:27.106Z,99857.75
2022-12-06T17:31:55.622Z,99854.91
2022-12-06T17:34:26.049Z,99859.56
2022-12-06T17:36:54.334Z,99846.22
2022-12-06T17:39:22.571Z,99851.69
2022-12-06T17:42:08.335Z,99851.47
2022-12-06T17:44:36.433Z,99841.56
2022-12-06T17:47:04.074Z,99845.41
2022-12-06T17:49:31.718Z,99843.81
2022-12-06T17:51:59.297Z,99852.25
2022-12-06T17:54:26.876Z,99842.78
2022-12-06T17:56:58.517Z,99853.91
2022-12-06T17:59:30.937Z,99850.25
2022-12-06T18:02:20.233Z,99851.28
2022-12-06T18:04:48.376Z,99843.78
2022-12-06T18:07:17.305Z,99850.03
2022-12-06T18:09:45.003Z,99854.72
2022-12-06T18:12:14.825Z,99848.41
2022-12-06T18:14:42.514Z,99853.31
2022-12-06T18:17:10.193Z,99849.25
2022-12-06T18:19:37.857Z,99849.03
2022-12-06T18:22:05.391Z,99844.41
2022-12-06T18:24:36.061Z,99849.03
2022-12-06T18:27:07.863Z,99846.81
2022-12-06T18:29:35.698Z,99843.38
2022-12-06T18:32:04.311Z,99850.63
2022-12-06T18:34:32.050Z,99842.97
2022-12-06T18:36:59.774Z,99843.97
2022-12-06T18:39:28.298Z,99844.38
2022-12-06T18:41:56.195Z,99848.41
2022-12-06T18:44:24.722Z,99837.50
2022-12-06T18:46:52.498Z,99841.94
2022-12-06T18:49:20.046Z,99845.97
2022-12-06T18:51:47.684Z,99841.28
2022-12-06T18:54:15.364Z,99840.88
2022-12-06T18:56:43.353Z,99847.97
2022-12-06T18:59:12.032Z,99847.78
2022-12-06T19:01:41.033Z,99841.47
2022-12-06T19:04:13.404Z,99848.38
2022-12-06T19:06:41.070Z,99855.66
2022-12-06T19:09:11.190Z,99853.22
2022-12-06T19:11:42.475Z,99860.69
2022-12-06T19:14:11.443Z,99859.06
2022-12-06T19:16:47.866Z,99855.84
2022-12-06T19:19:24.447Z,99858.88
2022-12-06T19:21:53.541Z,99849.41
2022-12-06T19:24:24.556Z,99844.72
2022-12-06T19:26:54.188Z,99857.84
2022-12-06T19:29:22.394Z,99857.44
2022-12-06T19:31:50.309Z,99851.59
2022-12-06T19:34:24.166Z,99847.97
2022-12-06T19:36:53.012Z,99853.03
2022-12-06T19:39:21.274Z,99854.22
2022-12-06T19:42:07.663Z,99851.38
2022-12-06T19:44:35.600Z,99842.91
2022-12-06T19:47:04.638Z,99837.81
2022-12-06T19:49:32.741Z,99846.28
2022-12-06T19:52:01.422Z,99842.47
2022-12-06T19:54:31.959Z,99839.41
2022-12-06T19:57:01.209Z,99842.66
2022-12-06T19:59:31.665Z,99841.41
2022-12-06T20:01:59.441Z,99840.38
2022-12-06T20:04:32.860Z,99843.16
2022-12-06T20:07:01.044Z,99829.00
2022-12-06T20:09:30.559Z,99818.97
2022-12-06T20:12:03.611Z,99823.81
2022-12-06T20:14:39.337Z,99829.09
2022-12-06T20:17:16.596Z,99828.53
2022-12-06T20:19:46.438Z,99825.44
2022-12-06T20:22:16.778Z,99830.13
2022-12-06T20:24:45.082Z,99829.88
2022-12-06T20:27:13.044Z,99833.75
2022-12-06T20:29:40.781Z,99825.88
2022-12-06T20:32:08.418Z,99827.06
2022-12-06T20:34:36.156Z,99825.88
2022-12-06T20:37:06.985Z,99824.22
2022-12-06T20:39:38.774Z,99818.31
2022-12-06T20:42:07.313Z,99811.22
2022-12-06T20:44:36.549Z,99813.22
2022-12-06T20:47:05.142Z,99820.06
2022-12-06T20:49:32.892Z,99800.09
2022-12-06T20:52:03.129Z,99800.91
2022-12-06T20:54:31.147Z,99790.41
2022-12-06T20:56:59.111Z,99801.13
2022-12-06T20:59:27.294Z,99808.19
2022-12-06T21:01:55.363Z,99801.94
2022-12-06T21:04:23.242Z,99798.72
2022-12-06T21:06:50.928Z,99800.38
2022-12-06T21:09:19.254Z,99800.56
2022-12-06T21:11:47.845Z,99797.53
2022-12-06T21:14:17.152Z,99797.13
2022-12-06T21:16:44.784Z,99791.25
2022-12-06T21:19:16.556Z,99797.13
2022-12-06T21:21:48.663Z,99795.13
2022-12-06T21:24:20.718Z,99796.75
2022-12-06T21:26:49.181Z,99792.50
2022-12-06T21:29:20.112Z,99793.69
2022-12-06T21:31:49.039Z,99793.28
2022-12-06T21:34:17.071Z,99796.75
2022-12-06T21:36:45.234Z,99792.25
2022-12-06T21:39:13.837Z,99804.19
2022-12-06T21:41:42.223Z,99811.44
2022-12-06T21:44:09.939Z,99807.19
2022-12-06T21:46:37.882Z,99798.69
2022-12-06T21:49:05.619Z,99813.88
2022-12-06T21:51:33.521Z,99810.63
2022-12-06T21:54:01.901Z,99808.19
2022-12-06T21:56:31.592Z,99818.50
2022-12-06T21:59:02.313Z,99818.66
2022-12-06T22:01:31.836Z,99814.03
2022-12-06T22:04:03.514Z,99817.06
2022-12-06T22:06:32.751Z,99822.06
2022-12-06T22:09:06.337Z,99820.88
2022-12-06T22:11:34.979Z,99820.19
2022-12-06T22:14:05.096Z,99817.13
2022-12-06T22:16:33.144Z,99815.13
2022-12-06T22:19:00.881Z,99818.94
2022-12-06T22:21:31.330Z,99824.34
2022-12-06T22:23:59.191Z,99813.03
2022-12-06T22:26:28.645Z,99817.94
2022-12-06T22:28:58.180Z,99806.94
2022-12-06T22:31:28.827Z,99811.56
2022-12-06T22:33:58.169Z,99813.38
2022-12-06T22:36:26.453Z,99804.84
2022-12-06T22:38:56.359Z,99802.47
2022-12-06T22:41:24.958Z,99805.69
2022-12-06T22:44:02.658Z,99791.38
2022-12-06T22:46:32.291Z,99797.84
2022-12-06T22:49:01.130Z,99793.44
2022-12-06T22:51:34.228Z,99785.59
2022-12-06T22:54:05.330Z,99790.66
2022-12-06T22:56:33.950Z,99783.94
2022-12-06T22:59:02.482Z,99785.31
2022-12-06T23:01:32.492Z,99792.94
2022-12-06T23:04:04.700Z,99786.75
2022-12-06T23:06:33.028Z,99787.50
2022-12-06T23:09:00.872Z,99790.31
2022-12-06T23:11:33.254Z,99788.75
2022-12-06T23:14:03.214Z,99785.03
2022-12-06T23:16:31.272Z,99779.38
2022-12-06T23:19:01.273Z,99786.25
2022-12-06T23:21:38.907Z,99797.56
2022-12-06T23:24:10.054Z,99784.66
2022-12-06T23:26:40.791Z,99797.22
2022-12-06T23:29:09.097Z,99788.31
2022-12-06T23:31:40.543Z,99787.56
2022-12-06T23:34:13.701Z,99788.44
2022-12-06T23:36:41.313Z,99790.03
2022-12-06T23:39:09.156Z,99789.69
2022-12-06T23:41:37.347Z,99795.97
2022-12-06T23:44:07.272Z,99745.25
2022-12-06T23:46:38.175Z,99788.16
2022-12-06T23:49:07.527Z,99793.44
2022-12-06T23:51:37.879Z,99792.25
2022-12-06T23:54:07.572Z,99785.47
2022-12-06T23:56:37.309Z,99779.84
2022-12-06T23:59:06.711Z,99771.66
